createdAt,value
2018-07-28T00:02:02.456Z,94.20
2018-07-28T00:06:58.250Z,95.60
2018-07-28T00:09:26.227Z,96.00
2018-07-28T00:11:54.212Z,96.60
2018-07-28T00:14:22.193Z,97.60
2018-07-28T00:16:50.240Z,98.80
2018-07-28T00:19:18.175Z,99.90
2018-07-28T00:21:46.143Z,99.90
2018-07-28T00:24:14.100Z,99.90
2018-07-28T00:26:42.076Z,99.90
2018-07-28T00:29:10.032Z,99.90
2018-07-28T00:31:38.699Z,99.90
2018-07-28T00:34:06.693Z,99.90
2018-07-28T00:36:34.671Z,99.90
2018-07-28T00:39:02.650Z,99.90
2018-07-28T00:41:30.640Z,99.90
2018-07-28T00:43:58.616Z,99.90
2018-07-28T00:46:26.599Z,99.90
2018-07-28T00:48:54.556Z,99.90
2018-07-28T00:51:22.512Z,99.90
2018-07-28T00:53:50.595Z,99.90
2018-07-28T00:56:18.560Z,99.90
2018-07-28T01:01:14.344Z,99.90
2018-07-28T01:03:42.412Z,99.90
2018-07-28T01:06:10.412Z,99.90
2018-07-28T01:08:39.271Z,99.90
2018-07-28T01:11:07.236Z,99.90
2018-07-28T01:13:35.260Z,99.90
2018-07-28T01:16:03.260Z,99.90
2018-07-28T01:18:31.291Z,99.90
2018-07-28T01:20:59.217Z,99.90
2018-07-28T01:23:27.315Z,99.90
2018-07-28T01:25:55.345Z,99.90
2018-07-28T01:28:23.331Z,99.90
2018-07-28T01:30:51.301Z,99.90
2018-07-28T01:33:19.267Z,99.90
2018-07-28T01:35:47.248Z,99.90
2018-07-28T01:38:15.273Z,99.90
2018-07-28T01:40:43.207Z,99.90
2018-07-28T01:43:11.163Z,99.90
2018-07-28T01:45:39.112Z,99.90
2018-07-28T01:48:07.102Z,99.90
2018-07-28T01:50:35.057Z,99.90
2018-07-28T01:53:03.053Z,99.90
2018-07-28T01:55:31.053Z,99.90
2018-07-28T01:57:58.990Z,99.90
2018-07-28T02:00:32.619Z,99.90
2018-07-28T02:03:00.595Z,99.90
2018-07-28T02:05:28.567Z,99.90
2018-07-28T02:07:56.572Z,99.90
2018-07-28T02:10:24.567Z,99.90
2018-07-28T02:12:52.525Z,99.90
2018-07-28T02:15:20.510Z,99.90
2018-07-28T02:17:48.515Z,99.90
2018-07-28T02:20:16.551Z,99.90
2018-07-28T02:22:44.574Z,99.90
2018-07-28T02:25:12.593Z,99.90
2018-07-28T02:27:40.544Z,99.90
2018-07-28T02:30:14.941Z,99.90
2018-07-28T02:32:42.960Z,99.90
2018-07-28T02:35:10.932Z,99.90
2018-07-28T02:37:38.912Z,99.90
2018-07-28T02:40:07.064Z,99.90
2018-07-28T02:42:35.108Z,99.90
2018-07-28T02:45:03.105Z,99.90
2018-07-28T02:47:31.049Z,99.90
2018-07-28T02:49:59.024Z,99.90
2018-07-28T02:52:27.048Z,99.90
2018-07-28T02:54:55.035Z,99.90
2018-07-28T02:57:22.972Z,99.90
2018-07-28T02:59:51.083Z,99.90
2018-07-28T03:02:19.109Z,99.90
2018-07-28T03:04:47.135Z,99.90
2018-07-28T03:07:15.165Z,99.90
2018-07-28T03:09:43.180Z,99.90
2018-07-28T03:12:11.120Z,99.90
2018-07-28T03:14:39.115Z,99.90
2018-07-28T03:17:07.077Z,99.90
2018-07-28T03:19:35.042Z,99.90
2018-07-28T03:22:02.998Z,99.90
2018-07-28T03:24:31.065Z,99.90
2018-07-28T03:26:59.009Z,99.90
2018-07-28T03:29:27.076Z,99.90
2018-07-28T03:31:55.044Z,99.90
2018-07-28T03:34:23.027Z,99.90
2018-07-28T03:36:50.985Z,99.90
2018-07-28T03:39:18.969Z,99.90
2018-07-28T03:41:46.973Z,99.90
2018-07-28T03:44:15.032Z,99.90
2018-07-28T03:46:43.036Z,99.90
2018-07-28T03:49:11.029Z,99.90
2018-07-28T03:51:38.992Z,99.90
2018-07-28T03:54:07.006Z,99.90
2018-07-28T03:56:35.038Z,99.90
2018-07-28T03:59:02.935Z,99.90
2018-07-28T04:01:30.903Z,99.90
2018-07-28T04:03:58.868Z,99.90
2018-07-28T04:06:26.813Z,99.90
2018-07-28T04:08:54.760Z,99.90
2018-07-28T04:11:22.763Z,99.90
2018-07-28T04:13:50.815Z,99.90
2018-07-28T04:16:19.292Z,99.90
2018-07-28T04:18:47.404Z,99.90
2018-07-28T04:21:15.498Z,99.90
2018-07-28T04:23:43.444Z,99.90
2018-07-28T04:26:11.410Z,99.90
2018-07-28T04:28:39.428Z,99.90
2018-07-28T04:31:07.357Z,99.90
2018-07-28T04:33:35.315Z,99.90
2018-07-28T04:36:03.332Z,99.90
2018-07-28T04:38:31.324Z,99.90
2018-07-28T04:40:59.303Z,99.90
2018-07-28T04:43:27.296Z,99.90
2018-07-28T04:45:55.264Z,99.90
2018-07-28T04:48:23.253Z,99.90
2018-07-28T04:50:51.249Z,99.90
2018-07-28T04:53:19.941Z,99.90
2018-07-28T04:55:47.940Z,99.90
2018-07-28T04:58:16.025Z,99.90
2018-07-28T05:00:44.007Z,99.90
2018-07-28T05:03:11.984Z,99.90
2018-07-28T05:05:39.936Z,99.90
2018-07-28T05:08:07.911Z,99.90
2018-07-28T05:10:35.881Z,99.90
2018-07-28T05:13:03.845Z,99.90
2018-07-28T05:15:31.824Z,99.90
2018-07-28T05:17:59.802Z,99.90
2018-07-28T05:20:27.833Z,99.90
2018-07-28T05:22:55.804Z,99.90
2018-07-28T05:25:23.792Z,99.90
2018-07-28T05:27:51.753Z,99.90
2018-07-28T05:30:20.868Z,99.90
2018-07-28T05:32:48.867Z,99.90
2018-07-28T05:35:16.846Z,99.90
2018-07-28T05:37:44.833Z,99.90
2018-07-28T05:40:12.939Z,99.90
2018-07-28T05:42:40.905Z,99.90
2018-07-28T05:45:08.916Z,99.90
2018-07-28T05:47:36.897Z,99.90
2018-07-28T05:50:05.329Z,99.90
2018-07-28T05:52:33.391Z,99.90
2018-07-28T05:55:01.512Z,99.90
2018-07-28T05:57:29.551Z,99.90
2018-07-28T05:59:57.549Z,99.90
2018-07-28T06:02:25.623Z,99.90
2018-07-28T06:04:53.541Z,99.90
2018-07-28T06:07:21.515Z,99.90
2018-07-28T06:09:49.508Z,99.90
2018-07-28T06:12:17.502Z,99.90
2018-07-28T06:14:45.597Z,99.90
2018-07-28T06:17:13.594Z,99.90
2018-07-28T06:19:41.564Z,99.90
2018-07-28T06:22:09.735Z,99.90
2018-07-28T06:24:37.686Z,99.90
2018-07-28T06:27:05.664Z,99.90
2018-07-28T06:32:01.555Z,99.90
2018-07-28T06:34:29.635Z,99.90
2018-07-28T06:36:57.571Z,99.90
2018-07-28T06:39:25.538Z,99.90
2018-07-28T06:41:53.487Z,99.90
2018-07-28T06:44:21.911Z,99.90
2018-07-28T06:46:49.940Z,99.90
2018-07-28T06:49:17.935Z,99.90
2018-07-28T06:51:45.910Z,99.90
2018-07-28T06:54:14.092Z,99.90
2018-07-28T06:56:42.071Z,99.90
2018-07-28T06:59:10.046Z,99.90
2018-07-28T07:01:38.024Z,99.90
2018-07-28T07:04:06.064Z,99.90
2018-07-28T07:06:34.020Z,99.90
2018-07-28T07:09:01.988Z,99.90
2018-07-28T07:11:29.956Z,99.90
2018-07-28T07:13:57.912Z,99.90
2018-07-28T07:16:25.872Z,99.90
2018-07-28T07:18:53.847Z,99.90
2018-07-28T07:21:22.768Z,99.90
2018-07-28T07:23:50.736Z,99.90
2018-07-28T07:26:18.703Z,99.90
2018-07-28T07:28:46.661Z,99.90
2018-07-28T07:31:14.855Z,99.90
2018-07-28T07:33:42.800Z,99.90
2018-07-28T07:36:10.775Z,99.90
2018-07-28T07:38:38.724Z,99.90
2018-07-28T07:41:06.704Z,99.90
2018-07-28T07:43:34.692Z,99.90
2018-07-28T07:46:02.616Z,99.90
2018-07-28T07:48:30.593Z,99.90
2018-07-28T07:50:58.568Z,99.90
2018-07-28T07:53:26.575Z,99.90
2018-07-28T07:55:54.520Z,99.90
2018-07-28T08:00:51.063Z,99.90
2018-07-28T08:03:19.083Z,99.90
2018-07-28T08:05:47.045Z,99.90
2018-07-28T08:08:14.993Z,99.90
2018-07-28T08:10:42.979Z,99.90
2018-07-28T08:13:11.112Z,99.90
2018-07-28T08:15:39.067Z,99.90
2018-07-28T08:18:07.032Z,99.90
2018-07-28T08:20:36.090Z,99.90
2018-07-28T08:23:04.119Z,99.90
2018-07-28T08:25:32.056Z,99.90
2018-07-28T08:28:00.024Z,99.90
2018-07-28T08:30:28.388Z,99.90
2018-07-28T08:32:56.309Z,99.90
2018-07-28T08:35:24.300Z,99.90
2018-07-28T08:37:52.325Z,99.90
2018-07-28T08:40:20.219Z,99.90
2018-07-28T08:42:48.200Z,99.90
2018-07-28T08:45:16.660Z,99.90
2018-07-28T08:47:44.605Z,99.90
2018-07-28T08:50:12.582Z,99.90
2018-07-28T08:52:40.567Z,99.90
2018-07-28T08:55:08.564Z,99.90
2018-07-28T08:57:36.515Z,99.90
2018-07-28T09:00:05.496Z,99.90
2018-07-28T09:02:33.445Z,99.90
2018-07-28T09:05:01.404Z,99.90
2018-07-28T09:07:29.400Z,99.90
2018-07-28T09:09:57.368Z,99.90
2018-07-28T09:12:25.392Z,99.90
2018-07-28T09:14:53.331Z,99.90
2018-07-28T09:17:21.352Z,99.90
2018-07-28T09:19:49.311Z,99.90
2018-07-28T09:22:17.328Z,99.90
2018-07-28T09:24:45.373Z,99.90
2018-07-28T09:27:13.332Z,99.90
2018-07-28T09:29:41.301Z,99.90
2018-07-28T09:32:09.311Z,99.90
2018-07-28T09:34:37.273Z,99.90
2018-07-28T09:37:05.653Z,99.90
2018-07-28T09:39:33.571Z,99.90
2018-07-28T09:42:01.542Z,99.90
2018-07-28T09:44:29.511Z,99.90
2018-07-28T09:46:57.503Z,99.90
2018-07-28T09:49:25.451Z,99.90
2018-07-28T09:51:53.425Z,99.90
2018-07-28T09:54:21.416Z,99.90
2018-07-28T09:59:17.329Z,99.90
2018-07-28T10:01:45.293Z,99.90
2018-07-28T10:04:13.289Z,99.90
2018-07-28T10:06:41.235Z,99.90
2018-07-28T10:09:10.353Z,99.90
2018-07-28T10:11:38.360Z,99.90
2018-07-28T10:14:06.538Z,99.90
2018-07-28T10:16:34.507Z,99.90
2018-07-28T10:19:02.504Z,99.90
2018-07-28T10:21:30.536Z,99.90
2018-07-28T10:23:58.511Z,99.90
2018-07-28T10:26:26.511Z,99.90
2018-07-28T10:28:54.518Z,99.90
2018-07-28T10:31:22.536Z,99.90
2018-07-28T10:33:50.572Z,99.90
2018-07-28T10:36:18.586Z,99.90
2018-07-28T10:38:46.536Z,99.90
2018-07-28T10:41:14.509Z,99.90
2018-07-28T10:43:42.467Z,99.90
2018-07-28T10:46:10.585Z,99.90
2018-07-28T10:48:38.552Z,99.60
2018-07-28T10:51:06.940Z,99.40
2018-07-28T10:53:34.968Z,98.40
2018-07-28T10:56:02.907Z,97.90
2018-07-28T10:58:30.927Z,97.00
2018-07-28T11:00:58.867Z,97.30
2018-07-28T11:03:26.988Z,96.80
2018-07-28T11:05:55.046Z,97.20
2018-07-28T11:08:23.184Z,96.60
2018-07-28T11:10:51.131Z,95.90
2018-07-28T11:13:19.076Z,95.80
2018-07-28T11:15:47.092Z,94.70
2018-07-28T11:18:15.084Z,95.30
2018-07-28T11:20:43.012Z,94.70
2018-07-28T11:23:12.052Z,93.70
2018-07-28T11:25:39.987Z,97.00
2018-07-28T11:28:07.945Z,99.90
2018-07-28T11:30:35.980Z,99.90
2018-07-28T11:33:15.504Z,99.90
2018-07-28T11:35:55.201Z,99.90
2018-07-28T11:38:35.501Z,99.90
2018-07-28T11:41:15.026Z,99.90
2018-07-28T11:43:54.555Z,99.90
2018-07-28T11:46:22.768Z,99.90
2018-07-28T11:48:50.800Z,99.90
2018-07-28T11:51:18.940Z,99.90
2018-07-28T11:53:46.915Z,99.90
2018-07-28T11:56:14.897Z,99.90
2018-07-28T11:58:42.876Z,99.90
2018-07-28T12:01:10.966Z,99.90
2018-07-28T12:03:38.904Z,99.90
2018-07-28T12:06:06.876Z,99.90
2018-07-28T12:08:34.856Z,99.90
2018-07-28T12:11:02.915Z,99.90
2018-07-28T12:13:30.932Z,99.90
2018-07-28T12:15:58.969Z,99.90
2018-07-28T12:18:26.993Z,99.90
2018-07-28T12:20:54.919Z,99.90
2018-07-28T12:23:22.893Z,99.90
2018-07-28T12:25:50.988Z,99.90
2018-07-28T12:28:18.926Z,99.90
2018-07-28T12:30:46.968Z,99.90
2018-07-28T12:33:14.936Z,99.90
2018-07-28T12:35:43.219Z,99.90
2018-07-28T12:38:11.244Z,99.90
2018-07-28T12:40:39.184Z,99.90
2018-07-28T12:43:07.264Z,99.90
2018-07-28T12:45:35.336Z,99.90
2018-07-28T12:48:03.289Z,99.90
2018-07-28T12:50:31.315Z,99.90
2018-07-28T12:52:59.428Z,99.90
2018-07-28T12:55:27.454Z,99.90
2018-07-28T12:57:55.372Z,99.90
2018-07-28T13:00:23.360Z,99.90
2018-07-28T13:02:51.305Z,99.90
2018-07-28T13:05:19.263Z,99.90
2018-07-28T13:07:47.256Z,99.90
2018-07-28T13:12:43.068Z,99.90
2018-07-28T13:15:11.053Z,99.90
2018-07-28T13:17:39.018Z,99.90
2018-07-28T13:20:07.093Z,99.90
2018-07-28T13:22:35.069Z,99.90
2018-07-28T13:25:03.878Z,99.90
2018-07-28T13:27:32.282Z,99.90
2018-07-28T13:30:00.333Z,99.90
2018-07-28T13:32:28.276Z,99.90
2018-07-28T13:34:56.251Z,99.90
2018-07-28T13:37:24.400Z,99.90
2018-07-28T13:39:52.359Z,99.90
2018-07-28T13:42:20.350Z,99.90
2018-07-28T13:44:48.334Z,99.90
2018-07-28T13:47:16.281Z,99.90
2018-07-28T13:49:44.276Z,99.90
2018-07-28T13:52:12.217Z,99.90
2018-07-28T13:54:40.212Z,99.90
2018-07-28T13:57:08.150Z,99.90
2018-07-28T13:59:36.156Z,99.90
2018-07-28T14:02:04.217Z,99.90
2018-07-28T14:04:32.292Z,99.90
2018-07-28T14:07:00.360Z,99.90
2018-07-28T14:09:28.348Z,99.90
2018-07-28T14:14:24.141Z,99.90
2018-07-28T14:16:52.119Z,99.90
2018-07-28T14:19:20.087Z,99.90
2018-07-28T14:21:48.100Z,99.90
2018-07-28T14:24:16.067Z,99.90
2018-07-28T14:26:44.012Z,99.90
2018-07-28T14:29:11.936Z,99.90
2018-07-28T14:31:39.885Z,99.90
2018-07-28T14:34:07.940Z,99.90
2018-07-28T14:36:35.937Z,99.90
2018-07-28T14:39:05.674Z,99.90
2018-07-28T14:41:33.650Z,99.90
2018-07-28T14:44:01.653Z,99.90
2018-07-28T14:46:29.597Z,99.90
2018-07-28T14:48:57.580Z,99.90
2018-07-28T14:51:25.516Z,99.90
2018-07-28T14:53:53.495Z,99.90
2018-07-28T14:56:21.508Z,99.90
2018-07-28T14:58:49.443Z,99.90
2018-07-28T15:01:17.403Z,99.90
2018-07-28T15:03:45.395Z,99.90
2018-07-28T15:06:13.341Z,99.90
2018-07-28T15:08:41.272Z,99.90
2018-07-28T15:11:09.413Z,99.90
2018-07-28T15:13:37.415Z,99.90
2018-07-28T15:16:05.299Z,99.90
2018-07-28T15:18:33.285Z,99.90
2018-07-28T15:21:01.923Z,99.90
2018-07-28T15:23:29.972Z,99.90
2018-07-28T15:25:58.020Z,99.90
2018-07-28T15:28:26.004Z,99.90
2018-07-28T15:30:54.289Z,99.90
2018-07-28T15:33:22.276Z,99.90
2018-07-28T15:35:50.328Z,99.90
2018-07-28T15:38:18.299Z,99.90
2018-07-28T15:40:46.266Z,99.90
2018-07-28T15:43:14.212Z,99.90
2018-07-28T15:45:42.157Z,99.90
2018-07-28T15:48:10.184Z,99.90
2018-07-28T15:50:38.077Z,99.90
2018-07-28T15:53:06.089Z,99.90
2018-07-28T15:55:34.053Z,99.90
2018-07-28T15:58:02.428Z,99.90
2018-07-28T16:00:30.379Z,99.90
2018-07-28T16:02:58.350Z,99.90
2018-07-28T16:05:26.825Z,99.90
2018-07-28T16:07:54.924Z,99.90
2018-07-28T16:10:22.868Z,99.90
2018-07-28T16:12:50.853Z,99.90
2018-07-28T16:15:18.831Z,99.90
2018-07-28T16:17:46.857Z,99.90
2018-07-28T16:20:14.914Z,99.90
2018-07-28T16:22:42.815Z,99.90
2018-07-28T16:25:10.786Z,99.90
2018-07-28T16:27:38.773Z,99.90
2018-07-28T16:30:07.568Z,99.90
2018-07-28T16:32:35.540Z,99.90
2018-07-28T16:35:03.478Z,99.90
2018-07-28T16:37:31.452Z,99.90
2018-07-28T16:39:59.387Z,99.90
2018-07-28T16:42:27.383Z,99.90
2018-07-28T16:44:55.325Z,99.90
2018-07-28T16:49:51.085Z,99.90
2018-07-28T16:52:19.044Z,99.90
2018-07-28T16:54:47.026Z,99.90
2018-07-28T16:57:15.011Z,99.90
2018-07-28T16:59:42.988Z,99.90
2018-07-28T17:02:10.944Z,99.90
2018-07-28T17:04:39.201Z,99.90
2018-07-28T17:07:07.234Z,99.90
2018-07-28T17:09:35.123Z,99.90
2018-07-28T17:12:03.807Z,99.90
2018-07-28T17:14:31.794Z,99.90
2018-07-28T17:16:59.830Z,99.90
2018-07-28T17:19:27.784Z,99.90
2018-07-28T17:21:55.803Z,99.90
2018-07-28T17:24:23.784Z,99.90
2018-07-28T17:26:51.751Z,99.90
2018-07-28T17:29:19.753Z,99.90
2018-07-28T17:31:47.750Z,99.90
2018-07-28T17:34:15.727Z,99.90
2018-07-28T17:36:43.786Z,99.90
2018-07-28T17:39:11.969Z,99.90
2018-07-28T17:41:40.561Z,99.90
2018-07-28T17:44:08.671Z,99.90
2018-07-28T17:46:36.652Z,99.90
2018-07-28T17:49:04.641Z,99.90
2018-07-28T17:51:32.633Z,99.90
2018-07-28T17:54:00.631Z,99.90
2018-07-28T17:56:28.734Z,99.90
2018-07-28T18:01:24.560Z,99.90
2018-07-28T18:03:52.531Z,99.90
2018-07-28T18:06:20.585Z,99.90
2018-07-28T18:08:48.584Z,99.90
2018-07-28T18:11:16.653Z,99.90
2018-07-28T18:13:44.735Z,99.90
2018-07-28T18:16:12.684Z,99.90
2018-07-28T18:18:40.667Z,99.90
2018-07-28T18:21:09.009Z,99.90
2018-07-28T18:23:37.266Z,99.90
2018-07-28T18:26:05.440Z,99.90
2018-07-28T18:28:33.437Z,99.90
2018-07-28T18:31:01.424Z,99.90
2018-07-28T18:33:29.509Z,99.90
2018-07-28T18:35:57.432Z,99.90
2018-07-28T18:38:25.487Z,99.90
2018-07-28T18:40:53.445Z,99.90
2018-07-28T18:43:21.428Z,99.90
2018-07-28T18:45:49.393Z,99.90
2018-07-28T18:48:17.401Z,99.90
2018-07-28T18:50:45.541Z,99.90
2018-07-28T18:53:13.528Z,99.90
2018-07-28T18:55:41.532Z,99.90
2018-07-28T18:58:08.507Z,99.90
2018-07-28T19:00:37.285Z,99.90
2018-07-28T19:07:58.455Z,99.90
2018-07-28T19:10:25.503Z,99.90
2018-07-28T19:12:58.181Z,99.90
2018-07-28T19:15:25.133Z,99.90
2018-07-28T19:17:58.198Z,99.90
2018-07-28T19:22:57.866Z,99.90
2018-07-28T19:25:24.850Z,99.90
2018-07-28T19:28:56.175Z,99.90
2018-07-28T19:31:23.170Z,99.90
2018-07-28T19:33:50.113Z,99.90
2018-07-28T19:36:22.966Z,99.90
2018-07-28T19:41:17.317Z,99.90
2018-07-28T19:43:44.269Z,99.90
2018-07-28T19:46:11.188Z,99.90
2018-07-28T19:48:38.100Z,99.90
2018-07-28T19:51:05.603Z,99.90
2018-07-28T19:53:32.550Z,99.90
2018-07-28T19:55:59.498Z,99.90
2018-07-28T19:58:26.400Z,99.90
2018-07-28T20:00:53.368Z,99.90
2018-07-28T20:03:20.349Z,99.90
2018-07-28T20:05:47.267Z,99.90
2018-07-28T20:08:14.181Z,99.90
2018-07-28T20:10:41.165Z,99.90
2018-07-28T20:13:08.120Z,99.90
2018-07-28T20:15:35.012Z,99.90
2018-07-28T20:18:01.967Z,99.90
2018-07-28T20:20:28.907Z,99.90
2018-07-28T20:22:55.842Z,99.90
2018-07-28T20:25:22.775Z,99.90
2018-07-28T20:27:49.667Z,99.90
2018-07-28T20:30:16.596Z,99.90
2018-07-28T20:32:43.575Z,99.90
2018-07-28T20:35:10.507Z,99.90
2018-07-28T20:37:37.504Z,99.90
2018-07-28T20:42:31.403Z,99.90
2018-07-28T20:44:58.359Z,99.90
2018-07-28T20:47:26.035Z,99.90
2018-07-28T20:49:52.969Z,99.90
2018-07-28T20:52:19.880Z,99.90
2018-07-28T20:54:46.881Z,99.90
2018-07-28T20:57:13.846Z,99.90
2018-07-28T20:59:40.735Z,99.90
2018-07-28T21:02:07.693Z,99.90
2018-07-28T21:04:34.601Z,99.90
2018-07-28T21:07:01.508Z,99.90
2018-07-28T21:09:28.469Z,99.90
2018-07-28T21:11:55.400Z,99.90
2018-07-28T21:14:22.408Z,99.90
2018-07-28T21:16:49.380Z,99.90
2018-07-28T21:19:16.329Z,99.90
2018-07-28T21:21:43.265Z,99.90
2018-07-28T21:24:10.499Z,99.90
2018-07-28T21:26:37.476Z,99.90
2018-07-28T21:29:04.573Z,99.90
2018-07-28T21:31:31.512Z,99.90
2018-07-28T21:33:58.463Z,99.90
2018-07-28T21:36:25.452Z,99.90
2018-07-28T21:38:52.448Z,99.90
2018-07-28T21:41:19.620Z,99.90
2018-07-28T21:46:13.605Z,99.90
2018-07-28T21:48:40.487Z,99.90
2018-07-28T21:51:07.404Z,99.90
2018-07-28T21:53:34.359Z,99.90
2018-07-28T21:56:01.356Z,99.90
2018-07-28T21:58:28.314Z,99.90
2018-07-28T22:00:57.081Z,99.90
2018-07-28T22:03:24.995Z,99.90
2018-07-28T22:05:52.177Z,99.90
2018-07-28T22:10:46.175Z,99.90
2018-07-28T22:13:13.107Z,99.90
2018-07-28T22:15:40.045Z,99.90
2018-07-28T22:18:06.960Z,99.90
2018-07-28T22:20:33.892Z,99.90
2018-07-28T22:23:00.800Z,99.90
2018-07-28T22:25:27.736Z,99.90
2018-07-28T22:27:54.656Z,99.90
2018-07-28T22:30:21.592Z,99.90
2018-07-28T22:32:48.704Z,99.90
2018-07-28T22:35:15.675Z,99.90
2018-07-28T22:37:42.702Z,99.90
2018-07-28T22:40:09.543Z,99.90
2018-07-28T22:42:45.556Z,99.90
2018-07-28T22:45:12.460Z,99.90
2018-07-28T22:47:39.404Z,99.90
2018-07-28T22:50:06.712Z,99.90
2018-07-28T22:52:33.599Z,99.90
2018-07-28T22:55:00.565Z,99.90
2018-07-28T22:57:27.510Z,99.90
2018-07-28T22:59:54.473Z,99.90
2018-07-28T23:02:21.422Z,99.90
2018-07-28T23:04:48.336Z,99.90
2018-07-28T23:07:15.283Z,99.90
2018-07-28T23:09:42.207Z,99.90
2018-07-28T23:12:09.152Z,99.90
2018-07-28T23:14:36.142Z,99.90
2018-07-28T23:17:03.098Z,99.90
2018-07-28T23:19:30.037Z,99.90
2018-07-28T23:21:56.953Z,99.90
2018-07-28T23:24:23.856Z,99.90
2018-07-28T23:26:50.785Z,99.90
2018-07-28T23:29:17.740Z,99.90
2018-07-28T23:31:44.656Z,99.90
2018-07-28T23:34:11.571Z,99.90
2018-07-28T23:36:38.508Z,99.90
2018-07-28T23:39:06.391Z,99.90
2018-07-28T23:41:33.322Z,99.90
2018-07-28T23:44:00.180Z,99.90
2018-07-28T23:46:27.102Z,99.90
2018-07-28T23:48:54.012Z,99.90
2018-07-28T23:51:21.000Z,99.90
2018-07-28T23:53:47.956Z,99.90
2018-07-28T23:56:14.892Z,99.90
2018-07-28T23:58:41.820Z,99.90
